Time;durP1;ratioP1;P1;durP2;ratioP2;P2;SDS_P1;SDS_P2;PMS_P1;PMS_P2;Temp;Humidity;BMP_temperature;BMP_pressure;BME280_temperature;BME280_humidity;BME280_pressure;Samples;Min_cycle;Max_cycle;Signal;HPM_P1;HPM_P2
2022/04/22 00:02:24;;;;;;;0.57;0.45;;;;;;;10.51;65.35;101003.81;10496405;28;20090;-76
2022/04/22 00:07:29;;;;;;;0.00;0.00;;;;;;;10.44;65.50;101001.09;10497665;28;20132;-76
2022/04/22 00:12:30;;;;;;;0.98;0.95;;;;;;;10.51;65.19;101001.25;10495374;28;20049;-76
2022/04/22 00:17:32;;;;;;;0.00;0.00;;;;;;;10.32;65.84;101000.69;10496327;28;20052;-76
2022/04/22 00:22:36;;;;;;;0.60;0.60;;;;;;;10.36;65.82;100999.97;10495965;28;20040;-75
2022/04/22 00:27:38;;;;;;;0.00;0.00;;;;;;;10.54;65.68;100994.47;10497338;28;20048;-76
2022/04/22 00:32:40;;;;;;;0.10;0.10;;;;;;;10.42;65.71;100989.84;10494758;28;20059;-76
2022/04/22 00:37:42;;;;;;;0.00;0.00;;;;;;;10.36;65.91;100986.19;10496721;28;20056;-76
2022/04/22 00:42:44;;;;;;;0.22;0.22;;;;;;;10.16;66.46;100982.22;10510584;28;20048;-76
2022/04/22 00:47:45;;;;;;;0.00;0.00;;;;;;;10.40;65.69;100978.63;10494792;28;20037;-76
2022/04/22 00:52:48;;;;;;;0.00;0.00;;;;;;;10.41;65.26;100972.66;10492483;28;20044;-76
2022/04/22 00:57:50;;;;;;;0.00;0.00;;;;;;;10.00;66.81;100967.19;10493786;28;20098;-76
2022/04/22 01:02:52;;;;;;;0.00;0.00;;;;;;;9.79;67.60;100963.13;10494330;28;20052;-76
2022/04/22 01:13:14;;;;;;;0.35;0.35;;;;;;;9.73;68.38;100942.34;10493320;28;20053;-76
2022/04/22 01:18:17;;;;;;;0.10;0.10;;;;;;;9.71;68.10;100940.56;10493349;28;20502;-76
2022/04/22 01:23:19;;;;;;;0.00;0.00;;;;;;;9.65;67.78;100931.84;10491593;28;20048;-76
2022/04/22 01:28:21;;;;;;;0.00;0.00;;;;;;;9.70;68.09;100929.41;10492080;28;20060;-76
2022/04/22 01:33:23;;;;;;;0.00;0.00;;;;;;;9.71;68.06;100920.88;10508565;28;20105;-76
2022/04/22 01:38:25;;;;;;;0.15;0.15;;;;;;;9.68;68.69;100920.78;10492988;28;20123;-76
2022/04/22 01:43:26;;;;;;;0.55;0.55;;;;;;;9.75;67.76;100922.69;10492283;28;20052;-76
2022/04/22 01:48:30;;;;;;;0.00;0.00;;;;;;;9.70;68.05;100921.69;10492961;28;20052;-76
2022/04/22 01:53:32;;;;;;;0.00;0.00;;;;;;;9.53;69.17;100922.06;10492810;28;20051;-76
2022/04/22 01:58:36;;;;;;;1.23;1.13;;;;;;;9.62;69.27;100920.59;10490172;28;20048;-76
2022/04/22 02:03:38;;;;;;;2.90;1.55;;;;;;;9.62;70.05;100924.03;10491213;28;20057;-76
2022/04/22 02:08:40;;;;;;;5.47;1.85;;;;;;;9.57;70.80;100917.03;10491882;28;20037;-76
2022/04/22 02:13:41;;;;;;;0.00;0.00;;;;;;;9.63;71.41;100912.06;10491859;28;20618;-76
2022/04/22 02:18:43;;;;;;;0.05;0.05;;;;;;;9.63;72.02;100912.06;10492642;28;20076;-76
2022/04/22 02:23:45;;;;;;;0.95;0.57;;;;;;;9.63;72.67;100912.06;10492185;28;20044;-76
2022/04/22 02:28:46;;;;;;;1.20;0.77;;;;;;;9.52;73.04;100904.88;10492166;28;20040;-75
2022/04/22 02:33:48;;;;;;;0.10;0.10;;;;;;;9.50;73.47;100911.66;10490912;28;20070;-76
2022/04/22 02:38:49;;;;;;;0.20;0.20;;;;;;;9.53;74.41;100911.78;10492938;28;20044;-76
2022/04/22 02:49:10;;;;;;;0.30;0.20;;;;;;;9.60;73.96;100902.56;10492068;28;20071;-75
2022/04/22 02:54:12;;;;;;;0.90;0.65;;;;;;;9.47;74.81;100895.28;10491509;28;20044;-76
2022/04/22 02:59:14;;;;;;;2.25;1.25;;;;;;;9.51;75.19;100890.28;10473707;28;20100;-76
2022/04/22 03:04:16;;;;;;;0.43;0.32;;;;;;;9.62;75.07;100884.59;10492610;28;20044;-75
2022/04/22 03:09:17;;;;;;;0.38;0.38;;;;;;;9.61;75.97;100891.41;10491484;28;20106;-75
2022/04/22 03:14:19;;;;;;;0.10;0.10;;;;;;;9.55;75.67;100890.38;10496699;28;20048;-76
2022/04/22 03:19:21;;;;;;;3.90;2.50;;;;;;;9.46;76.70;100886.69;10498389;28;20056;-76
2022/04/22 03:24:22;;;;;;;1.48;0.85;;;;;;;9.51;75.72;100886.84;10513772;28;20059;-76
2022/04/22 03:29:24;;;;;;;0.00;0.00;;;;;;;9.58;75.78;100883.63;10500642;28;20093;-76
2022/04/22 03:34:25;;;;;;;0.25;0.25;;;;;;;9.42;76.58;100887.41;10480972;28;20053;-75
2022/04/22 03:39:27;;;;;;;0.10;0.10;;;;;;;9.39;75.73;100892.47;10498348;28;20507;-75
2022/04/22 03:44:28;;;;;;;0.57;0.47;;;;;;;9.35;76.21;100885.47;10498150;28;20105;-76
2022/04/22 03:49:33;;;;;;;0.00;0.00;;;;;;;9.43;76.29;100888.31;10497913;28;20075;-76
2022/04/22 03:54:35;;;;;;;1.38;1.05;;;;;;;9.22;77.02;100879.13;10497140;28;20103;-76
2022/04/22 03:59:37;;;;;;;0.17;0.17;;;;;;;9.42;76.72;100882.28;10496855;28;20041;-76
2022/04/22 04:04:38;;;;;;;3.70;2.33;;;;;;;9.34;76.86;100878.63;10497488;28;20068;-76
2022/04/22 04:25:47;;;;;;;0.80;0.57;;;;;;;9.34;77.15;100873.47;10511809;28;20052;-76
2022/04/22 04:30:48;;;;;;;0.10;0.10;;;;;;;9.31;77.24;100869.09;10495983;28;20090;-76
2022/04/22 04:35:50;;;;;;;0.63;0.52;;;;;;;9.24;76.95;100868.88;10496791;28;20051;-76
2022/04/22 04:40:52;;;;;;;1.80;0.65;;;;;;;9.30;77.28;100871.63;10493871;28;20611;-75
2022/04/22 04:45:53;;;;;;;1.30;1.20;;;;;;;9.30;77.03;100866.47;10496264;28;20047;-74
2022/04/22 04:50:55;;;;;;;9.32;5.00;;;;;;;9.31;76.94;100865.66;10493712;28;20048;-75
2022/04/22 04:55:57;;;;;;;2.72;2.00;;;;;;;9.46;76.86;100863.56;10494962;28;20048;-74
2022/04/22 05:00:59;;;;;;;3.45;1.70;;;;;;;9.58;76.30;100877.59;10515024;28;20025;-75
2022/04/22 05:06:01;;;;;;;1.15;1.00;;;;;;;9.57;76.32;100868.16;10523369;28;20044;-76
2022/04/22 05:11:03;;;;;;;1.52;0.75;;;;;;;9.74;75.77;100869.50;10536040;28;20459;-76
2022/04/22 05:16:04;;;;;;;0.68;0.47;;;;;;;9.67;76.09;100876.19;10534247;28;20055;-76
2022/04/22 05:21:06;;;;;;;3.80;1.83;;;;;;;9.68;75.69;100869.31;10503121;28;20625;-75
2022/04/22 05:26:08;;;;;;;0.15;0.15;;;;;;;9.93;75.51;100862.31;10497995;28;20044;-76
2022/04/22 05:36:30;;;;;;;4.20;2.47;;;;;;;9.79;75.79;100862.78;10493133;28;20044;-76
2022/04/22 05:41:31;;;;;;;3.70;1.80;;;;;;;9.97;75.11;100866.69;10507517;28;20106;-76
2022/04/22 05:46:33;;;;;;;0.10;0.10;;;;;;;10.19;74.44;100867.28;10520023;28;20483;-75
2022/04/22 05:51:34;;;;;;;3.08;1.60;;;;;;;10.28;73.69;100870.97;10531079;28;20503;-76
2022/04/22 05:56:36;;;;;;;4.13;2.03;;;;;;;10.36;73.72;100870.31;10496986;28;20044;-75
2022/04/22 06:01:38;;;;;;;3.17;2.70;;;;;;;10.43;73.77;100862.81;10492630;28;20052;-75
2022/04/22 06:06:40;;;;;;;3.25;2.38;;;;;;;10.61;72.82;100864.13;10508922;28;20037;-76
2022/04/22 06:11:48;;;;;;;2.25;1.15;;;;;;;10.68;73.09;100863.44;10529962;28;20139;-75
2022/04/22 06:16:50;;;;;;;0.45;0.08;;;;;;;10.87;73.25;100871.63;10506861;28;20655;-75
2022/04/22 06:21:51;;;;;;;0.00;0.00;;;;;;;11.16;71.66;100863.69;10492661;28;20184;-75
2022/04/22 06:26:53;;;;;;;3.30;0.77;;;;;;;10.70;72.21;100860.91;10495579;28;20040;-76
2022/04/22 06:31:55;;;;;;;0.75;0.55;;;;;;;11.05;71.67;100868.59;10490261;28;20052;-75
2022/04/22 06:36:57;;;;;;;1.00;0.82;;;;;;;11.14;71.22;100868.81;10490738;28;20499;-76
2022/04/22 06:47:19;;;;;;;;;;;;;;;11.33;68.95;100859.78;10497397;28;20041;-75
2022/04/22 06:52:21;;;;;;;1.80;1.20;;;;;;;11.90;67.57;100850.66;10499435;28;20387;-76
2022/04/22 06:57:23;;;;;;;1.85;0.75;;;;;;;12.44;66.63;100850.78;10499693;28;20072;-76
2022/04/22 07:02:25;;;;;;;9.35;3.67;;;;;;;11.97;66.54;100849.09;10498869;28;20088;-75
2022/04/22 07:07:27;;;;;;;3.85;1.95;;;;;;;11.82;66.56;100843.59;10500261;28;20446;-76
2022/04/22 07:12:32;;;;;;;0.00;0.00;;;;;;;12.28;66.64;100839.31;10530683;28;20109;-76
2022/04/22 07:17:35;;;;;;;2.95;2.40;;;;;;;12.29;65.33;100850.50;10499674;28;20557;-76
2022/04/22 07:22:38;;;;;;;1.35;0.43;;;;;;;12.63;64.14;100845.94;10496323;28;20044;-77
2022/04/22 07:27:41;;;;;;;0.90;0.47;;;;;;;12.66;65.27;100839.13;10497085;28;20040;-76
2022/04/22 07:32:46;;;;;;;0.98;0.55;;;;;;;13.40;62.93;100835.91;10498203;28;20049;-76
2022/04/22 07:37:50;;;;;;;0.32;0.22;;;;;;;12.88;64.41;100842.03;10514319;28;20091;-76
2022/04/22 07:48:15;;;;;;;0.75;0.65;;;;;;;13.31;62.54;100842.66;10497520;28;20044;-75
2022/04/22 07:53:17;;;;;;;2.70;1.30;;;;;;;12.97;62.78;100839.59;10509909;28;20066;-76
2022/04/22 07:58:19;;;;;;;2.88;2.08;;;;;;;13.09;61.81;100832.84;10516128;28;20040;-77
2022/04/22 08:03:20;;;;;;;1.63;0.90;;;;;;;13.48;61.98;100829.09;10513885;28;20501;-75
2022/04/22 08:08:22;;;;;;;0.45;0.38;;;;;;;13.53;61.15;100832.59;10499807;28;20033;-79
2022/04/22 08:13:26;;;;;;;0.75;0.47;;;;;;;13.59;61.31;100832.69;10500892;28;20098;-78
2022/04/22 08:18:27;;;;;;;5.97;2.70;;;;;;;13.64;61.04;100824.97;10499885;28;20044;-78
2022/04/22 08:23:29;;;;;;;2.65;1.67;;;;;;;14.19;60.48;100809.16;10497422;28;20499;-79
2022/04/22 08:28:30;;;;;;;1.67;1.00;;;;;;;14.07;58.60;100822.00;10498101;28;20581;-79
2022/04/22 08:33:32;;;;;;;0.32;0.15;;;;;;;15.01;56.82;100812.44;10495320;28;20068;-78
2022/04/22 08:38:34;;;;;;;1.02;0.98;;;;;;;15.63;55.27;100806.66;10494834;28;20079;-77
2022/04/22 08:43:37;;;;;;;1.70;0.65;;;;;;;15.40;53.29;100820.41;10494802;28;20063;-79
2022/04/22 08:54:01;;;;;;;0.10;0.10;;;;;;;16.85;52.66;100809.41;10480337;28;20408;-78
2022/04/22 08:59:03;;;;;;;5.07;2.58;;;;;;;15.88;51.77;100806.78;10495019;28;20044;-78
2022/04/22 09:04:05;;;;;;;2.83;1.35;;;;;;;15.55;52.42;100804.03;10495462;28;20480;-78
2022/04/22 09:09:06;;;;;;;1.00;0.38;;;;;;;16.64;51.31;100790.34;10495037;28;20507;-77
2022/04/22 09:14:08;;;;;;;0.60;0.55;;;;;;;17.43;51.72;100792.78;10495134;28;20044;-79
2022/04/22 09:19:10;;;;;;;1.92;1.45;;;;;;;17.00;52.25;100787.72;10494712;28;20036;-78
2022/04/22 09:24:13;;;;;;;1.25;0.70;;;;;;;17.77;49.46;100776.13;10510647;28;20048;-80
2022/04/22 09:29:15;;;;;;;0.13;0.13;;;;;;;17.08;52.53;100761.66;10489026;28;20472;-77
2022/04/22 09:34:32;;;;;;;0.65;0.55;;;;;;;16.69;50.44;100760.84;10508976;28;20039;-78
2022/04/22 09:44:55;;;;;;;;;;;;;;;16.28;51.22;100760.03;10513147;28;20051;-79
2022/04/22 09:49:59;;;;;;;0.28;0.28;;;;;;;16.76;50.17;100753.06;10508629;28;19919;-79
2022/04/22 09:55:04;;;;;;;1.20;0.75;;;;;;;17.15;48.05;100750.38;10509998;28;20052;-79
2022/04/22 10:00:09;;;;;;;0.38;0.22;;;;;;;17.49;48.88;100737.22;10500741;28;20383;-77
2022/04/22 10:05:32;;;;;;;0.55;0.55;;;;;;;17.46;46.48;100737.22;10491738;28;20088;-80
2022/04/22 10:10:40;;;;;;;0.47;0.47;;;;;;;18.41;45.91;100727.00;10489498;28;20461;-80
2022/04/22 10:15:42;;;;;;;0.00;0.00;;;;;;;19.87;44.46;100705.19;10492784;28;20051;-78
2022/04/22 10:20:57;;;;;;;1.95;1.00;;;;;;;17.44;48.61;100702.50;10512761;28;20133;-77
2022/04/22 10:26:00;;;;;;;0.88;0.77;;;;;;;18.73;47.23;100704.06;10502658;28;20044;-77
2022/04/22 10:31:03;;;;;;;1.25;0.90;;;;;;;17.27;45.85;100707.78;10508618;28;20036;-79
2022/04/22 10:36:05;;;;;;;1.63;1.02;;;;;;;16.06;48.54;100694.19;10513371;28;20060;-80
2022/04/22 10:41:14;;;;;;;0.45;0.35;;;;;;;17.17;45.86;100700.88;10498024;28;20488;-80
2022/04/22 10:52:11;;;;;;;0.35;0.22;;;;;;;18.13;44.09;100689.88;10462731;28;20037;-81
2022/04/22 10:57:16;;;;;;;1.52;1.08;;;;;;;18.47;42.94;100689.56;10527577;28;20040;-80
2022/04/22 11:02:31;;;;;;;0.35;0.20;;;;;;;18.45;42.76;100692.19;10528984;28;20037;-78
2022/04/22 11:07:51;;;;;;;1.85;0.30;;;;;;;19.24;40.29;100680.84;10498435;28;20131;-80
2022/04/22 11:12:57;;;;;;;6.20;0.82;;;;;;;17.70;39.84;100681.47;10524469;28;20071;-79
2022/04/22 11:17:58;;;;;;;0.10;0.10;;;;;;;17.53;41.14;100683.34;10540195;28;20058;-80
2022/04/22 11:23:00;;;;;;;1.45;0.65;;;;;;;17.32;42.01;100674.78;10506072;28;20048;-80
2022/04/22 11:28:03;;;;;;;0.93;0.52;;;;;;;18.29;42.48;100677.56;10496005;28;20380;-80
2022/04/22 11:33:21;;;;;;;18.63;8.50;;;;;;;17.72;42.64;100679.75;10548037;28;20433;-80
2022/04/22 11:38:23;;;;;;;0.52;0.45;;;;;;;18.19;41.03;100672.44;10553716;28;20051;-79
2022/04/22 11:43:28;;;;;;;0.40;0.38;;;;;;;17.68;41.50;100667.63;10581283;28;20051;-79
2022/04/22 11:48:30;;;;;;;1.58;0.50;;;;;;;17.44;41.52;100661.69;10561884;28;20042;-80
2022/04/22 11:53:35;;;;;;;2.40;1.50;;;;;;;18.15;39.52;100646.41;10536171;28;20123;-80
2022/04/22 11:58:36;;;;;;;1.95;1.17;;;;;;;19.54;42.15;100634.28;10536553;28;20479;-80
2022/04/22 12:09:06;;;;;;;0.15;0.05;;;;;;;19.65;38.16;100627.09;10578967;28;20460;-80
2022/04/22 12:14:11;;;;;;;0.63;0.60;;;;;;;19.38;38.39;100617.94;10578880;27;20104;-80
2022/04/22 12:19:13;;;;;;;0.10;0.10;;;;;;;19.52;39.03;100612.53;10579522;28;20297;-77
2022/04/22 12:24:16;;;;;;;3.47;1.58;;;;;;;18.87;39.09;100611.66;10559587;28;20055;-79
2022/04/22 12:29:22;;;;;;;0.28;0.28;;;;;;;19.41;37.99;100607.47;10580040;28;20043;-80
2022/04/22 12:34:34;;;;;;;1.00;0.75;;;;;;;18.61;39.94;100609.38;10579472;28;20560;-81
2022/04/22 12:39:44;;;;;;;0.03;0.03;;;;;;;18.18;39.79;100615.09;10578069;28;20044;-76
2022/04/22 12:56:02;;;;;;;1.55;0.38;;;;;;;17.56;42.36;100608.66;10601244;27;20097;-75
2022/04/22 13:01:06;;;;;;;0.05;0.03;;;;;;;17.59;41.96;100606.03;10601823;27;20088;-76
2022/04/22 13:06:08;;;;;;;0.55;0.52;;;;;;;17.90;42.00;100597.09;10562431;28;20528;-76
2022/04/22 13:11:09;;;;;;;1.02;0.45;;;;;;;17.38;43.11;100595.78;10576260;28;20047;-77
2022/04/22 13:16:14;;;;;;;1.35;0.20;;;;;;;17.31;42.80;100592.38;10576204;28;20047;-75
2022/04/22 13:21:16;;;;;;;0.40;0.38;;;;;;;17.34;43.98;100594.94;10575574;28;20044;-77
2022/04/22 13:26:18;;;;;;;0.88;0.88;;;;;;;17.20;43.27;100586.34;10584406;28;20051;-77
2022/04/22 13:31:22;;;;;;;0.43;0.30;;;;;;;16.81;44.42;100586.53;10578581;28;20036;-75
2022/04/22 13:36:23;;;;;;;0.57;0.45;;;;;;;16.87;45.05;100583.03;10567115;28;20058;-75
2022/04/22 13:41:25;;;;;;;1.73;1.30;;;;;;;16.75;43.61;100577.03;10578455;27;20043;-75
2022/04/22 13:57:07;;;;;;;;;;;;;;;16.65;46.77;100577.94;10559189;28;20081;-76
2022/04/22 14:02:09;;;;;;;0.32;0.32;;;;;;;17.07;46.16;100570.81;10577877;28;19965;-76
2022/04/22 14:07:12;;;;;;;0.20;0.15;;;;;;;16.86;45.27;100553.56;10582037;28;20058;-75
2022/04/22 14:12:14;;;;;;;0.15;0.15;;;;;;;17.03;45.46;100557.84;10562586;28;20085;-76
2022/04/22 14:17:16;;;;;;;0.90;0.43;;;;;;;18.11;46.04;100540.44;10577548;28;20035;-75
2022/04/22 14:22:42;;;;;;;1.23;1.00;;;;;;;17.42;44.42;100548.00;10555968;28;20048;-75
2022/04/22 14:27:44;;;;;;;4.15;1.55;;;;;;;17.10;44.16;100536.09;10572889;28;20089;-75
2022/04/22 14:32:45;;;;;;;1.83;0.43;;;;;;;16.81;46.12;100544.91;10556390;28;20092;-75
2022/04/22 14:37:47;;;;;;;1.23;0.85;;;;;;;16.58;45.30;100545.03;10575212;28;20047;-76
2022/04/22 14:42:50;;;;;;;5.47;2.25;;;;;;;16.64;45.86;100538.06;10585127;28;20095;-74
2022/04/22 14:47:53;;;;;;;7.05;1.90;;;;;;;17.28;44.87;100537.69;10599814;27;20056;-75
2022/04/22 14:52:56;;;;;;;0.75;0.63;;;;;;;17.35;45.00;100533.31;10573927;28;20092;-75
2022/04/22 14:57:58;;;;;;;0.98;0.85;;;;;;;16.97;45.53;100532.69;10574807;28;20039;-74
2022/04/22 15:02:59;;;;;;;2.03;1.20;;;;;;;16.62;45.16;100531.16;10602527;27;20048;-76
2022/04/22 15:08:01;;;;;;;2.55;1.80;;;;;;;16.73;45.92;100533.69;10578337;28;20556;-75
2022/04/22 15:13:03;;;;;;;0.57;0.32;;;;;;;16.98;45.47;100528.38;10562587;28;20097;-74
2022/04/22 15:28:45;;;;;;;2.20;0.70;;;;;;;16.25;47.48;100528.69;10582156;28;20035;-74
2022/04/22 15:33:46;;;;;;;1.90;1.13;;;;;;;15.89;46.91;100526.19;10579664;28;20047;-75
2022/04/22 15:38:49;;;;;;;1.42;0.93;;;;;;;16.35;46.70;100535.56;10561773;28;20478;-75
2022/04/22 15:44:50;;;;;;;0.40;0.25;;;;;;;16.96;46.80;100537.06;10577407;27;20474;-76
2022/04/22 15:50:31;;;;;;;8.30;2.28;;;;;;;16.93;46.13;100526.66;10405468;28;20080;-77
2022/04/22 15:55:32;;;;;;;0.40;0.40;;;;;;;17.19;45.99;100529.94;10400551;28;20069;-77
2022/04/22 16:01:33;;;;;;;1.38;0.80;;;;;;;16.72;46.77;100527.59;10397851;28;20053;-76
2022/04/22 16:07:01;;;;;;;3.55;2.22;;;;;;;16.44;45.30;100512.16;10417428;28;20124;-77
2022/04/22 16:17:29;;;;;;;1.10;0.85;;;;;;;16.58;44.93;100519.00;10384503;28;20068;-77
2022/04/22 16:22:32;;;;;;;1.33;1.05;;;;;;;16.89;44.43;100521.44;10387513;28;20046;-74
2022/04/22 16:27:35;;;;;;;0.80;0.57;;;;;;;16.71;44.59;100523.31;10543891;27;20506;-74
2022/04/22 16:32:38;;;;;;;0.88;0.68;;;;;;;16.94;44.88;100519.72;10582225;27;20051;-76
2022/04/22 16:37:40;;;;;;;0.65;0.38;;;;;;;16.73;45.55;100529.34;10570770;27;20044;-76
2022/04/22 16:42:41;;;;;;;8.70;0.55;;;;;;;16.28;47.92;100526.06;10551005;28;20043;-75
2022/04/22 16:47:43;;;;;;;0.88;0.60;;;;;;;16.20;46.77;100533.91;10555734;27;20075;-76
2022/04/22 16:52:46;;;;;;;2.70;1.67;;;;;;;16.17;46.33;100536.50;10545598;27;20057;-77
2022/04/22 16:57:47;;;;;;;1.80;1.35;;;;;;;16.10;46.24;100537.41;10584980;27;20475;-76
2022/04/22 17:02:49;;;;;;;0.63;0.45;;;;;;;16.23;47.21;100543.44;10599149;27;20119;-77
2022/04/22 17:07:51;;;;;;;0.47;0.28;;;;;;;16.04;48.16;100540.91;10566597;27;20039;-75
2022/04/22 17:12:53;;;;;;;2.22;1.50;;;;;;;15.75;48.01;100541.75;10603029;27;20130;-76
2022/04/22 17:23:15;;;;;;;2.28;1.52;;;;;;;15.71;48.04;100551.28;10549469;28;20048;-75
2022/04/22 17:28:22;;;;;;;0.88;0.60;;;;;;;15.69;48.38;100546.97;10551424;27;20052;-73
2022/04/22 17:33:24;;;;;;;1.23;0.50;;;;;;;15.68;48.53;100540.94;10561786;28;20040;-74
2022/04/22 17:38:25;;;;;;;0.25;0.22;;;;;;;15.63;48.58;100552.16;10570956;27;20035;-74
2022/04/22 17:43:27;;;;;;;2.15;1.25;;;;;;;15.32;49.04;100547.84;10574051;28;20043;-73
2022/04/22 17:48:29;;;;;;;0.00;0.00;;;;;;;15.34;50.80;100553.03;10571214;28;20453;-74
2022/04/22 17:53:31;;;;;;;0.40;0.40;;;;;;;15.18;50.20;100550.44;10572300;28;20048;-73
2022/04/22 17:58:34;;;;;;;0.47;0.35;;;;;;;15.07;49.86;100546.97;10573416;28;20039;-75
2022/04/22 18:03:36;;;;;;;2.70;0.95;;;;;;;14.96;49.44;100566.81;10555212;28;20055;-74
2022/04/22 18:08:38;;;;;;;0.80;0.57;;;;;;;14.96;49.48;100564.22;10573379;28;20383;-74
2022/04/22 18:13:40;;;;;;;0.15;0.15;;;;;;;14.98;49.11;100558.16;10592831;27;20505;-75
2022/04/22 18:18:45;;;;;;;1.85;0.40;;;;;;;14.75;50.58;100565.91;10573067;28;20040;-75
2022/04/22 18:23:47;;;;;;;0.95;0.60;;;;;;;14.60;50.68;100558.88;10573857;28;20073;-75
2022/04/22 18:28:49;;;;;;;0.20;0.10;;;;;;;14.65;50.23;100570.16;10574311;28;20046;-76
2022/04/22 18:33:51;;;;;;;0.98;0.90;;;;;;;14.44;51.13;100573.53;10574792;28;20044;-73
2022/04/22 18:38:52;;;;;;;0.90;0.60;;;;;;;14.36;51.43;100575.22;10538601;28;20040;-74
2022/04/22 18:43:56;;;;;;;0.85;0.65;;;;;;;14.13;52.47;100575.94;10557392;28;20400;-74
2022/04/22 18:49:02;;;;;;;0.00;0.00;;;;;;;14.13;52.65;100583.72;10573328;27;20039;-74
2022/04/22 18:54:08;;;;;;;0.00;0.00;;;;;;;14.02;53.33;100582.78;10585459;27;20048;-74
2022/04/22 18:59:09;;;;;;;1.45;1.15;;;;;;;13.98;53.12;100586.22;10581346;28;20042;-74
2022/04/22 19:04:12;;;;;;;0.00;0.00;;;;;;;13.83;53.68;100587.84;10579370;27;20101;-73
2022/04/22 19:09:13;;;;;;;0.00;0.00;;;;;;;14.04;52.85;100591.41;10583265;28;20071;-73
2022/04/22 19:14:17;;;;;;;1.02;0.85;;;;;;;13.93;53.69;100594.81;10574289;27;20064;-75
2022/04/22 19:19:19;;;;;;;0.13;0.13;;;;;;;14.02;53.39;100596.59;10569752;28;20048;-74
2022/04/22 19:24:21;;;;;;;1.10;0.82;;;;;;;13.89;53.78;100597.38;10561295;28;20043;-72
2022/04/22 19:29:22;;;;;;;0.80;0.28;;;;;;;13.77;54.03;100603.31;10560740;28;20044;-74
2022/04/22 19:34:24;;;;;;;0.28;0.20;;;;;;;13.66;54.33;100599.81;10581695;28;20047;-74
2022/04/22 19:44:46;;;;;;;0.00;0.00;;;;;;;12.87;57.68;100598.97;10581407;28;20035;-74
2022/04/22 19:49:48;;;;;;;0.00;0.00;;;;;;;12.65;58.44;100602.16;10563381;28;20333;-74
2022/04/22 19:54:50;;;;;;;3.40;1.35;;;;;;;12.60;59.17;100600.38;10580036;28;20082;-74
2022/04/22 19:59:51;;;;;;;0.00;0.00;;;;;;;12.68;58.59;100601.34;10562875;28;20039;-75
2022/04/22 20:04:53;;;;;;;0.00;0.00;;;;;;;12.58;59.30;100600.34;10598455;27;20512;-75
2022/04/22 20:09:56;;;;;;;0.20;0.20;;;;;;;12.48;59.09;100603.66;10595397;27;20491;-74
2022/04/22 20:14:58;;;;;;;0.00;0.00;;;;;;;12.49;59.76;100602.81;10593199;27;20088;-75
2022/04/22 20:20:00;;;;;;;0.00;0.00;;;;;;;12.44;60.15;100612.22;10563918;28;20039;-76
2022/04/22 20:25:01;;;;;;;0.30;0.30;;;;;;;12.27;60.71;100610.28;10560625;28;20046;-75
2022/04/22 20:30:04;;;;;;;1.38;0.65;;;;;;;12.08;61.36;100621.19;10580494;28;20054;-75
2022/04/22 20:40:35;;;;;;;0.00;0.00;;;;;;;11.96;61.50;100620.09;10579448;28;20039;-75
2022/04/22 20:45:36;;;;;;;1.13;0.25;;;;;;;11.93;61.43;100627.81;10608078;27;20047;-75
2022/04/22 20:50:41;;;;;;;1.27;1.17;;;;;;;12.01;61.17;100623.69;10608887;27;20043;-75
2022/04/22 20:55:43;;;;;;;0.00;0.00;;;;;;;12.32;60.27;100618.94;10580399;27;20043;-73
2022/04/22 21:00:46;;;;;;;0.10;0.10;;;;;;;12.13;60.15;100635.03;10621285;27;20043;-73
2022/04/22 21:05:49;;;;;;;0.17;0.10;;;;;;;12.21;59.86;100639.44;10607807;27;20092;-73
2022/04/22 21:10:50;;;;;;;1.00;0.75;;;;;;;12.08;60.52;100634.09;10569222;27;20448;-72
2022/04/22 21:15:52;;;;;;;1.38;0.93;;;;;;;11.95;60.65;100636.44;10596981;27;20097;-73
2022/04/22 21:20:54;;;;;;;0.00;0.00;;;;;;;11.92;60.60;100633.81;10576522;28;20539;-73
2022/04/22 21:25:55;;;;;;;0.20;0.20;;;;;;;11.88;60.64;100626.84;10558893;28;20383;-78
2022/04/22 21:30:57;;;;;;;0.00;0.00;;;;;;;11.87;60.86;100640.63;10558314;28;20050;-78
2022/04/22 21:35:59;;;;;;;0.05;0.05;;;;;;;11.73;61.35;100643.81;10577329;28;20130;-78
2022/04/22 21:41:00;;;;;;;0.00;0.00;;;;;;;11.66;61.31;100631.66;10574636;28;20096;-78
2022/04/22 21:46:02;;;;;;;0.10;0.10;;;;;;;11.59;61.68;100640.16;10576542;28;20404;-78
2022/04/22 21:51:04;;;;;;;0.20;0.20;;;;;;;11.46;62.01;100639.09;10575550;28;20043;-77
2022/04/22 21:56:06;;;;;;;0.00;0.00;;;;;;;11.32;62.76;100636.25;10563261;27;20483;-77
2022/04/22 22:01:09;;;;;;;0.13;0.13;;;;;;;11.22;62.96;100636.91;10603187;27;20115;-77
2022/04/22 22:06:11;;;;;;;0.80;0.45;;;;;;;11.11;63.14;100637.56;10567783;28;20058;-78
2022/04/22 22:11:12;;;;;;;0.00;0.00;;;;;;;11.24;62.85;100637.81;10576038;28;20044;-77
2022/04/22 22:16:14;;;;;;;0.45;0.45;;;;;;;11.14;63.19;100641.03;10596683;27;20043;-77
2022/04/22 22:21:16;;;;;;;0.70;0.40;;;;;;;11.17;63.38;100635.94;10583907;27;20435;-77
2022/04/22 22:26:20;;;;;;;1.17;0.52;;;;;;;11.22;63.49;100629.16;10557459;28;20403;-76
2022/04/22 22:31:22;;;;;;;0.20;0.20;;;;;;;11.10;64.15;100624.63;10556795;28;20474;-77
2022/04/22 22:36:26;;;;;;;0.10;0.10;;;;;;;11.03;64.47;100625.34;10575336;28;20044;-77
2022/04/22 22:41:28;;;;;;;4.47;3.50;;;;;;;11.09;64.41;100631.50;10575113;28;20108;-77
2022/04/22 22:46:31;;;;;;;0.00;0.00;;;;;;;10.95;65.40;100636.38;10575729;28;20071;-76
2022/04/22 22:51:32;;;;;;;0.00;0.00;;;;;;;11.09;65.00;100628.09;10594500;28;20043;-77
2022/04/22 22:56:34;;;;;;;0.32;0.22;;;;;;;10.74;66.23;100636.84;10617701;27;20043;-78
2022/04/22 23:01:39;;;;;;;0.00;0.00;;;;;;;10.83;66.26;100630.13;10615053;28;20035;-77
2022/04/22 23:06:40;;;;;;;0.45;0.45;;;;;;;10.93;65.71;100632.03;10575331;28;20051;-78
2022/04/22 23:11:43;;;;;;;2.08;1.95;;;;;;;10.89;66.21;100630.25;10555436;28;20533;-77
2022/04/22 23:16:45;;;;;;;0.50;0.50;;;;;;;10.74;66.97;100634.25;10574156;28;20048;-77
2022/04/22 23:21:47;;;;;;;0.00;0.00;;;;;;;10.94;66.48;100633.78;10574104;28;20100;-77
2022/04/22 23:26:49;;;;;;;0.20;0.20;;;;;;;10.89;66.81;100627.69;10574385;28;20055;-77
2022/04/22 23:31:51;;;;;;;0.13;0.13;;;;;;;10.83;66.73;100624.97;10562749;28;20462;-76
2022/04/22 23:36:54;;;;;;;0.20;0.20;;;;;;;10.77;67.03;100621.44;10581468;28;20093;-78
2022/04/22 23:41:56;;;;;;;0.32;0.30;;;;;;;10.71;67.52;100628.19;10579695;28;20039;-78
2022/04/22 23:46:58;;;;;;;0.20;0.20;;;;;;;10.70;67.71;100624.72;10581806;28;20043;-78
2022/04/22 23:52:00;;;;;;;1.45;0.85;;;;;;;10.58;68.10;100619.31;10561659;28;20097;-77
2022/04/22 23:57:02;;;;;;;3.90;0.85;;;;;;;10.48;68.72;100608.81;10580868;28;20078;-77
